createdAt,value
2023-01-30T00:01:27.844Z,-0.38
2023-01-30T00:06:30.662Z,-0.39
2023-01-30T00:11:33.665Z,-0.40
2023-01-30T00:16:36.700Z,-0.37
2023-01-30T00:21:39.675Z,-0.37
2023-01-30T00:26:42.620Z,-0.37
2023-01-30T00:31:45.518Z,-0.38
2023-01-30T00:36:58.861Z,-0.36
2023-01-30T00:42:29.195Z,-0.36
2023-01-30T00:47:32.083Z,-0.31
2023-01-30T00:52:34.985Z,-0.33
2023-01-30T00:57:37.788Z,-0.32
2023-01-30T01:02:40.645Z,-0.32
2023-01-30T01:07:43.597Z,-0.32
2023-01-30T01:12:47.110Z,-0.35
2023-01-30T01:17:50.901Z,-0.36
2023-01-30T01:22:56.097Z,-0.38
2023-01-30T01:27:59.001Z,-0.40
2023-01-30T01:33:01.918Z,-0.39
2023-01-30T01:38:04.804Z,-0.39
2023-01-30T01:43:25.224Z,-0.37
2023-01-30T01:48:34.572Z,-0.39
2023-01-30T01:53:47.109Z,-0.40
2023-01-30T01:58:56.159Z,-0.41
2023-01-30T02:04:03.932Z,-0.42
2023-01-30T02:09:10.043Z,-0.39
2023-01-30T02:14:15.200Z,-0.38
2023-01-30T02:20:02.649Z,-0.39
2023-01-30T02:25:17.632Z,-0.40
2023-01-30T02:30:55.936Z,-0.43
2023-01-30T02:36:21.306Z,-0.45
2023-01-30T02:41:42.431Z,-0.46
2023-01-30T02:46:59.257Z,-0.46
2023-01-30T02:52:03.643Z,-0.47
2023-01-30T02:57:21.766Z,-0.48
2023-01-30T03:02:30.876Z,-0.49
2023-01-30T03:07:36.792Z,-0.50
2023-01-30T03:12:55.001Z,-0.50
2023-01-30T03:17:58.669Z,-0.49
2023-01-30T03:23:01.586Z,-0.48
2023-01-30T03:28:06.425Z,-0.46
2023-01-30T03:33:09.918Z,-0.46
2023-01-30T03:38:13.661Z,-0.46
2023-01-30T03:43:16.661Z,-0.44
2023-01-30T03:48:19.567Z,-0.43
2023-01-30T03:53:22.580Z,-0.43
2023-01-30T03:58:25.581Z,-0.42
2023-01-30T04:03:28.587Z,-0.42
2023-01-30T04:08:31.485Z,-0.44
2023-01-30T04:13:34.599Z,-0.43
2023-01-30T04:18:37.499Z,-0.44
2023-01-30T04:23:40.708Z,-0.42
2023-01-30T04:28:44.784Z,-0.43
2023-01-30T04:33:47.636Z,-0.44
2023-01-30T04:38:51.058Z,-0.47
2023-01-30T04:43:53.812Z,-0.50
2023-01-30T04:48:56.768Z,-0.60
2023-01-30T04:53:59.769Z,-0.68
2023-01-30T04:59:02.672Z,-0.73
2023-01-30T05:04:07.322Z,-0.79
2023-01-30T05:09:10.221Z,-0.82
2023-01-30T05:14:13.121Z,-0.86
2023-01-30T05:19:16.146Z,-0.87
2023-01-30T05:24:19.037Z,-0.89
2023-01-30T05:29:21.935Z,-0.91
2023-01-30T05:34:24.751Z,-0.94
2023-01-30T05:39:27.538Z,-0.97
2023-01-30T05:44:30.859Z,-0.99
2023-01-30T05:49:33.753Z,-1.00
2023-01-30T05:54:36.655Z,-0.98
2023-01-30T05:59:39.457Z,-1.00
2023-01-30T06:04:42.364Z,-1.00
2023-01-30T06:09:45.162Z,-1.02
2023-01-30T06:14:47.983Z,-1.02
2023-01-30T06:19:50.871Z,-1.04
2023-01-30T06:24:54.044Z,-1.04
2023-01-30T06:29:56.777Z,-1.07
2023-01-30T06:34:59.575Z,-1.05
2023-01-30T06:40:02.479Z,-1.06
2023-01-30T06:45:06.371Z,-1.05
2023-01-30T06:50:09.618Z,-1.05
2023-01-30T06:55:13.750Z,-1.02
2023-01-30T07:00:20.779Z,-1.01
2023-01-30T07:05:23.652Z,-1.00
2023-01-30T07:10:26.659Z,-0.96
2023-01-30T07:15:30.292Z,-0.91
2023-01-30T07:20:33.283Z,-0.87
2023-01-30T07:25:36.091Z,-0.87
2023-01-30T07:30:39.125Z,-0.85
2023-01-30T07:35:42.097Z,-0.88
2023-01-30T07:40:45.003Z,-0.90
2023-01-30T07:45:49.055Z,-0.97
2023-01-30T07:50:56.691Z,-1.01
2023-01-30T07:56:10.795Z,-1.04
2023-01-30T08:01:14.039Z,-1.01
2023-01-30T08:06:17.320Z,-0.97
2023-01-30T08:11:20.081Z,-0.96
2023-01-30T08:16:23.186Z,-0.93
2023-01-30T08:21:26.153Z,-0.95
2023-01-30T08:26:29.060Z,-0.92
2023-01-30T08:31:32.428Z,-0.87
2023-01-30T08:36:35.373Z,-0.85
2023-01-30T08:41:38.172Z,-0.84
2023-01-30T08:46:41.132Z,-0.83
2023-01-30T08:51:44.289Z,-0.84
2023-01-30T08:56:47.097Z,-0.84
2023-01-30T09:01:49.888Z,-0.79
2023-01-30T09:06:53.000Z,-0.75
2023-01-30T09:11:56.003Z,-0.77
2023-01-30T09:16:59.139Z,-0.77
2023-01-30T09:22:01.961Z,-0.68
2023-01-30T09:27:04.783Z,-0.57
2023-01-30T09:32:07.723Z,-0.58
2023-01-30T09:37:10.542Z,-0.56
2023-01-30T09:42:37.201Z,-0.57
2023-01-30T09:47:49.030Z,-0.51
2023-01-30T09:53:05.825Z,-0.52
2023-01-30T09:58:17.947Z,-0.51
2023-01-30T10:03:28.963Z,-0.42
2023-01-30T10:08:51.438Z,-0.45
2023-01-30T10:14:01.484Z,-0.48
2023-01-30T10:19:43.209Z,-0.36
2023-01-30T10:25:20.495Z,-0.23
2023-01-30T10:30:24.005Z,-0.13
2023-01-30T10:35:35.924Z,-0.11
2023-01-30T10:40:44.975Z,0.06
2023-01-30T10:45:56.168Z,0.16
2023-01-30T10:51:03.519Z,0.31
2023-01-30T10:56:31.368Z,0.51
2023-01-30T11:01:58.779Z,0.58
2023-01-30T11:07:02.872Z,0.56
2023-01-30T11:12:06.119Z,0.60
2023-01-30T11:17:16.155Z,0.60
2023-01-30T11:22:19.575Z,0.55
2023-01-30T11:27:25.919Z,0.51
2023-01-30T11:32:29.700Z,0.51
2023-01-30T11:37:35.049Z,0.49
2023-01-30T11:42:45.319Z,0.49
2023-01-30T11:48:05.049Z,0.52
2023-01-30T11:53:31.882Z,0.61
2023-01-30T11:58:38.681Z,0.83
2023-01-30T12:03:51.636Z,1.00
2023-01-30T12:08:55.233Z,1.16
2023-01-30T12:14:15.517Z,1.35
2023-01-30T12:19:45.584Z,1.43
2023-01-30T12:25:20.556Z,1.37
2023-01-30T12:30:34.914Z,1.27
2023-01-30T12:35:58.604Z,1.36
2023-01-30T12:41:28.550Z,1.32
2023-01-30T12:46:50.388Z,1.28
2023-01-30T12:52:38.450Z,1.42
2023-01-30T12:58:06.677Z,1.40
2023-01-30T13:03:42.803Z,1.57
2023-01-30T13:08:51.580Z,1.61
2023-01-30T13:14:26.941Z,1.56
2023-01-30T13:19:58.440Z,1.40
2023-01-30T13:25:20.359Z,1.36
2023-01-30T13:30:25.609Z,1.65
2023-01-30T13:35:34.598Z,1.68
2023-01-30T13:40:42.381Z,1.44
2023-01-30T13:45:49.128Z,1.35
2023-01-30T13:51:13.081Z,1.35
2023-01-30T13:56:40.650Z,1.49
2023-01-30T14:02:00.173Z,1.53
2023-01-30T14:07:12.161Z,1.49
2023-01-30T14:12:22.360Z,1.54
2023-01-30T14:17:25.217Z,1.54
2023-01-30T14:22:50.101Z,1.61
2023-01-30T14:28:14.885Z,1.62
2023-01-30T14:33:23.410Z,1.65
2023-01-30T14:38:28.638Z,1.70
2023-01-30T14:43:42.150Z,1.66
2023-01-30T14:48:50.146Z,1.50
2023-01-30T14:54:13.188Z,1.35
2023-01-30T14:59:16.584Z,1.15
2023-01-30T15:04:20.163Z,1.01
2023-01-30T15:09:27.256Z,0.87
2023-01-30T15:14:54.026Z,0.80
2023-01-30T15:20:22.014Z,0.76
2023-01-30T15:25:33.824Z,0.76
2023-01-30T15:31:01.609Z,0.80
2023-01-30T15:36:19.536Z,0.77
2023-01-30T15:41:22.543Z,0.78
2023-01-30T15:46:33.362Z,0.77
2023-01-30T15:51:36.469Z,0.76
2023-01-30T15:56:40.892Z,0.74
2023-01-30T16:01:43.814Z,0.74
2023-01-30T16:06:46.720Z,0.72
2023-01-30T16:11:50.494Z,0.68
2023-01-30T16:17:03.590Z,0.63
2023-01-30T16:22:17.118Z,0.56
2023-01-30T16:27:40.895Z,0.54
2023-01-30T16:32:43.878Z,0.53
2023-01-30T16:37:47.145Z,0.57
2023-01-30T16:43:02.453Z,0.57
2023-01-30T16:48:30.969Z,0.60
2023-01-30T16:53:34.357Z,0.63
2023-01-30T16:58:38.621Z,0.67
2023-01-30T17:03:43.580Z,0.66
2023-01-30T17:08:55.488Z,0.66
2023-01-30T17:14:20.381Z,0.66
2023-01-30T17:19:23.181Z,0.66
2023-01-30T17:24:27.077Z,0.66
2023-01-30T17:29:42.510Z,0.67
2023-01-30T17:34:45.918Z,0.68
2023-01-30T17:39:49.490Z,0.68
2023-01-30T17:44:52.649Z,0.64
2023-01-30T17:49:55.967Z,0.62
2023-01-30T17:54:58.765Z,0.61
2023-01-30T18:00:01.771Z,0.57
2023-01-30T18:05:05.221Z,0.54
2023-01-30T18:10:16.400Z,0.50
2023-01-30T18:15:19.607Z,0.49
2023-01-30T18:20:22.770Z,0.48
2023-01-30T18:25:25.713Z,0.53
2023-01-30T18:30:28.610Z,0.55
2023-01-30T18:35:31.408Z,0.58
2023-01-30T18:40:34.313Z,0.60
2023-01-30T18:45:37.214Z,0.61
2023-01-30T18:50:40.118Z,0.61
2023-01-30T18:55:50.482Z,0.60
2023-01-30T19:00:53.608Z,0.61
2023-01-30T19:05:56.612Z,0.63
2023-01-30T19:11:30.347Z,0.67
2023-01-30T19:16:35.191Z,0.66
2023-01-30T19:21:38.360Z,0.65
2023-01-30T19:26:41.686Z,0.64
2023-01-30T19:31:47.468Z,0.60
2023-01-30T19:36:50.429Z,0.61
2023-01-30T19:41:53.299Z,0.61
2023-01-30T19:46:56.193Z,0.60
2023-01-30T19:52:02.274Z,0.55
2023-01-30T19:57:05.070Z,0.51
2023-01-30T20:02:10.039Z,0.47
2023-01-30T20:07:12.931Z,0.48
2023-01-30T20:12:15.729Z,0.48
2023-01-30T20:17:18.528Z,0.50
2023-01-30T20:22:21.361Z,0.50
2023-01-30T20:27:24.337Z,0.50
2023-01-30T20:32:27.160Z,0.51
2023-01-30T20:37:30.038Z,0.52
2023-01-30T20:42:32.841Z,0.56
2023-01-30T20:47:35.641Z,0.58
2023-01-30T20:52:38.753Z,0.60
2023-01-30T20:57:45.047Z,0.58
2023-01-30T21:02:51.316Z,0.57
2023-01-30T21:07:54.219Z,0.57
2023-01-30T21:12:57.123Z,0.58
2023-01-30T21:18:00.338Z,0.59
2023-01-30T21:23:03.243Z,0.58
2023-01-30T21:28:06.141Z,0.64
2023-01-30T21:33:09.044Z,0.70
2023-01-30T21:38:30.994Z,0.74
2023-01-30T21:43:33.796Z,0.77
2023-01-30T21:48:36.595Z,0.81
2023-01-30T21:53:39.396Z,0.84
2023-01-30T21:58:42.507Z,0.84
2023-01-30T22:03:45.451Z,0.87
2023-01-30T22:08:48.414Z,0.93
2023-01-30T22:13:51.838Z,0.97
2023-01-30T22:18:55.867Z,0.99
2023-01-30T22:23:59.178Z,0.99
2023-01-30T22:29:02.905Z,1.02
2023-01-30T22:34:06.720Z,1.07
2023-01-30T22:39:09.729Z,1.08
2023-01-30T22:44:12.627Z,1.08
2023-01-30T22:49:15.538Z,1.06
2023-01-30T22:54:18.437Z,1.02
2023-01-30T22:59:22.062Z,0.95
2023-01-30T23:04:24.963Z,0.87
2023-01-30T23:09:27.971Z,0.78
2023-01-30T23:14:30.874Z,0.70
2023-01-30T23:19:33.674Z,0.67
2023-01-30T23:24:36.776Z,0.63
2023-01-30T23:29:40.109Z,0.56
2023-01-30T23:34:43.122Z,0.51
2023-01-30T23:39:46.002Z,0.46
2023-01-30T23:44:48.804Z,0.45
2023-01-30T23:49:51.704Z,0.44
2023-01-30T23:54:54.606Z,0.39
2023-01-30T23:59:57.516Z,0.32
